Arctic Fury — WDE9335 — position and weather

sailwx.info

Track history (hours):
 
Tides and Currents Weather Stations Pressure Air Temp Water Temp Dewpoint Dewpoint Depression Visibility Wind Speed Wind Dir Waves Ship Positions

Arctic Fury

Owner: Fury Group Inc, Seattle, WA. More information available from US FCC via Universal Licensing System and Coast Guard Vessel Documentation Center.

Last reported at 2016-Sep-30 10:31 UTC. Time now 2016-Sep-30 11:45 UTC.
Position N 46°54' W 124°06'.

Length 43 m; draft 5 m.

Type: Fishing. MMSI: 366468000.

Date/timePositionNaut miles runAvg speedWind from/ knotsBaromVisibWave heightAir tempDewpointWater temp
2016-Sep-30 10:31N 46°54' W 124°06'0 0.0
2016-Sep-30 08:33N 46°54' W 124°06'0 0.0
2016-Sep-30 06:33N 46°54' W 124°06'8 2.7
2016-Sep-30 03:33N 46°59' W 124°16'11 9.5
2016-Sep-30 02:22N 47°09' W 124°25'60 5.4
2016-Sep-29 15:09N 47°57' W 125°17'8 1.2
2016-Sep-29 08:33N 48°04' W 125°25'3 2.6
2016-Sep-29 07:33N 48°02' W 125°22'17 2.4
2016-Sep-29 00:33N 47°49' W 125°07'4 1.2
2016-Sep-28 21:26N 47°51' W 125°10'0 0.1
2016-Sep-28 19:25N 47°51' W 125°10'7 2.4
2016-Sep-28 16:29N 47°45' W 125°06'7 7.6
2016-Sep-28 15:33N 47°38' W 125°06'22 7.3
2016-Sep-28 12:33N 47°21' W 124°46'32 8.1
2016-Sep-28 08:33N 46°56' W 124°15'6 1.2
2016-Sep-28 03:33N 46°54' W 124°06'0 0.0
2016-Sep-28 02:33N 46°54' W 124°06'0 0.0
2016-Sep-28 01:33N 46°54' W 124°06'0 0.0
2016-Sep-27 23:33N 46°54' W 124°06'0 0.0
2016-Sep-27 19:22N 46°54' W 124°06'0 0.0
2016-Sep-27 10:22N 46°54' W 124°06'13 1.3
2016-Sep-27 00:33N 47°03' W 124°21'48 3.0
2016-Sep-26 08:23N 47°42' W 125°01'24 1.3
2016-Sep-25 14:32N 47°21' W 124°47'8 3.8
2016-Sep-25 12:33N 47°15' W 124°40'4 4.3
2016-Sep-25 11:33N 47°12' W 124°35'6 5.8
2016-Sep-25 10:33N 47°08' W 124°29'5 5.4
2016-Sep-25 09:33N 47°04' W 124°23'15 7.6
2016-Sep-25 07:33N 46°55' W 124°06'0 0.0
2016-Sep-25 04:31N 46°54' W 124°06'0 0.0
2016-Sep-25 00:33N 46°54' W 124°06'0 0.0
2016-Sep-24 22:33N 46°54' W 124°06'0 0.0
2016-Sep-24 19:13N 46°54' W 124°06'0 0.0
2016-Sep-24 17:30N 46°54' W 124°06'0 0.0
2016-Sep-24 16:30N 46°54' W 124°06'0 0.0
2016-Sep-24 14:33N 46°54' W 124°06'0 0.0
2016-Sep-24 12:31N 46°54' W 124°06'0 0.0
2016-Sep-24 10:31N 46°54' W 124°06'0 0.0
2016-Sep-24 09:27N 46°54' W 124°06'0 0.0
2016-Sep-24 03:21N 46°54' W 124°06'0 0.0
2016-Sep-24 02:33N 46°54' W 124°06'0 0.0
2016-Sep-24 01:33N 46°54' W 124°06'0 0.0
2016-Sep-24 00:33N 46°54' W 124°06'0 0.0
2016-Sep-23 19:20N 46°54' W 124°06'0 0.0
2016-Sep-23 17:20N 46°54' W 124°06'0 0.0
2016-Sep-23 15:23N 46°54' W 124°06'0 0.0
2016-Sep-23 13:33N 46°54' W 124°06'0 0.0
2016-Sep-22 23:30N 46°54' W 124°06'0 0.0
2016-Sep-22 20:19N 46°54' W 124°06'0 0.0
2016-Sep-22 12:33N 46°54' W 124°06'0 0.0
2016-Sep-22 04:32N 46°54' W 124°06'0 0.0
2016-Sep-22 03:33N 46°54' W 124°06'0 0.0
2016-Sep-22 00:33N 46°54' W 124°06'0 0.0
2016-Sep-21 23:32N 46°54' W 124°06'0 0.0
2016-Sep-21 22:32N 46°54' W 124°06'22 7.3
2016-Sep-21 19:33N 47°09' W 124°31'16 5.3
2016-Sep-21 16:33N 47°20' W 124°48'25 3.6
2016-Sep-21 09:33N 46°54' W 124°51'4 4.0
2016-Sep-21 08:33N 46°51' W 124°49'12 3.9
2016-Sep-21 05:33N 46°40' W 124°43'5 2.5
2016-Sep-21 03:33N 46°36' W 124°39'2 1.9
2016-Sep-21 02:33N 46°37' W 124°40'5 0.5
2016-Sep-20 17:33N 46°34' W 124°35'3 1.0
2016-Sep-20 14:33N 46°32' W 124°31'2 1.8
2016-Sep-20 13:34N 46°31' W 124°32'4 1.4
2016-Sep-20 10:33N 46°34' W 124°29'  
Track history (hours):
 
Tides and Currents Weather Stations Pressure Air Temp Water Temp Dewpoint Dewpoint Depression Visibility Wind Speed Wind Dir Waves Ship Positions

Arctic Fury

Owner: Fury Group Inc, Seattle, WA. More information available from US FCC via Universal Licensing System and Coast Guard Vessel Documentation Center.

Last reported at 2016-Sep-30 10:31 UTC. Time now 2016-Sep-30 11:45 UTC.
Position N 46°54' W 124°06'.

Length 43 m; draft 5 m.

Type: Fishing. MMSI: 366468000.

Date/timePositionNaut miles runAvg speedWind from/ knotsBaromVisibWave heightAir tempDewpointWater temp
2016-Sep-30 10:31N 46°54' W 124°06'0 0.0
2016-Sep-30 08:33N 46°54' W 124°06'0 0.0
2016-Sep-30 06:33N 46°54' W 124°06'8 2.7
2016-Sep-30 03:33N 46°59' W 124°16'11 9.5
2016-Sep-30 02:22N 47°09' W 124°25'60 5.4
2016-Sep-29 15:09N 47°57' W 125°17'8 1.2
2016-Sep-29 08:33N 48°04' W 125°25'3 2.6
2016-Sep-29 07:33N 48°02' W 125°22'17 2.4
2016-Sep-29 00:33N 47°49' W 125°07'4 1.2
2016-Sep-28 21:26N 47°51' W 125°10'0 0.1
2016-Sep-28 19:25N 47°51' W 125°10'7 2.4
2016-Sep-28 16:29N 47°45' W 125°06'7 7.6
2016-Sep-28 15:33N 47°38' W 125°06'22 7.3
2016-Sep-28 12:33N 47°21' W 124°46'32 8.1
2016-Sep-28 08:33N 46°56' W 124°15'6 1.2
2016-Sep-28 03:33N 46°54' W 124°06'0 0.0
2016-Sep-28 02:33N 46°54' W 124°06'0 0.0
2016-Sep-28 01:33N 46°54' W 124°06'0 0.0
2016-Sep-27 23:33N 46°54' W 124°06'0 0.0
2016-Sep-27 19:22N 46°54' W 124°06'0 0.0
2016-Sep-27 10:22N 46°54' W 124°06'13 1.3
2016-Sep-27 00:33N 47°03' W 124°21'48 3.0
2016-Sep-26 08:23N 47°42' W 125°01'24 1.3
2016-Sep-25 14:32N 47°21' W 124°47'8 3.8
2016-Sep-25 12:33N 47°15' W 124°40'4 4.3
2016-Sep-25 11:33N 47°12' W 124°35'6 5.8
2016-Sep-25 10:33N 47°08' W 124°29'5 5.4
2016-Sep-25 09:33N 47°04' W 124°23'15 7.6
2016-Sep-25 07:33N 46°55' W 124°06'0 0.0
2016-Sep-25 04:31N 46°54' W 124°06'0 0.0
2016-Sep-25 00:33N 46°54' W 124°06'0 0.0
2016-Sep-24 22:33N 46°54' W 124°06'0 0.0
2016-Sep-24 19:13N 46°54' W 124°06'0 0.0
2016-Sep-24 17:30N 46°54' W 124°06'0 0.0
2016-Sep-24 16:30N 46°54' W 124°06'0 0.0
2016-Sep-24 14:33N 46°54' W 124°06'0 0.0
2016-Sep-24 12:31N 46°54' W 124°06'0 0.0
2016-Sep-24 10:31N 46°54' W 124°06'0 0.0
2016-Sep-24 09:27N 46°54' W 124°06'0 0.0
2016-Sep-24 03:21N 46°54' W 124°06'0 0.0
2016-Sep-24 02:33N 46°54' W 124°06'0 0.0
2016-Sep-24 01:33N 46°54' W 124°06'0 0.0
2016-Sep-24 00:33N 46°54' W 124°06'0 0.0
2016-Sep-23 19:20N 46°54' W 124°06'0 0.0
2016-Sep-23 17:20N 46°54' W 124°06'0 0.0
2016-Sep-23 15:23N 46°54' W 124°06'0 0.0
2016-Sep-23 13:33N 46°54' W 124°06'0 0.0
2016-Sep-22 23:30N 46°54' W 124°06'0 0.0
2016-Sep-22 20:19N 46°54' W 124°06'0 0.0
2016-Sep-22 12:33N 46°54' W 124°06'0 0.0
2016-Sep-22 04:32N 46°54' W 124°06'0 0.0
2016-Sep-22 03:33N 46°54' W 124°06'0 0.0
2016-Sep-22 00:33N 46°54' W 124°06'0 0.0
2016-Sep-21 23:32N 46°54' W 124°06'0 0.0
2016-Sep-21 22:32N 46°54' W 124°06'22 7.3
2016-Sep-21 19:33N 47°09' W 124°31'16 5.3
2016-Sep-21 16:33N 47°20' W 124°48'25 3.6
2016-Sep-21 09:33N 46°54' W 124°51'4 4.0
2016-Sep-21 08:33N 46°51' W 124°49'12 3.9
2016-Sep-21 05:33N 46°40' W 124°43'5 2.5
2016-Sep-21 03:33N 46°36' W 124°39'2 1.9
2016-Sep-21 02:33N 46°37' W 124°40'5 0.5
2016-Sep-20 17:33N 46°34' W 124°35'3 1.0
2016-Sep-20 14:33N 46°32' W 124°31'2 1.8
2016-Sep-20 13:34N 46°31' W 124°32'4 1.4
2016-Sep-20 10:33N 46°34' W 124°29'  

Dump ship's entire track history